Time;durP1;ratioP1;P1;durP2;ratioP2;P2;SDS_P1;SDS_P2;PMS_P1;PMS_P2;Temp;Humidity;BMP_temperature;BMP_pressure;BME280_temperature;BME280_humidity;BME280_pressure;Samples;Min_cycle;Max_cycle;Signal;HPM_P1;HPM_P2
2022/01/14 00:01:35;;;;;;;;;34.75;30.00;;;;;5.49;83.99;103031.84;5073565;28;45464;-76
2022/01/14 00:04:01;;;;;;;;;41.50;33.75;;;;;5.50;84.18;103020.56;5073789;28;45456;-78
2022/01/14 00:06:26;;;;;;;;;30.75;27.00;;;;;5.53;83.88;103024.84;5073349;28;46396;-78
2022/01/14 00:09:01;;;;;;;;;41.50;29.50;;;;;5.51;83.96;103011.03;5073372;28;46510;-79
2022/01/14 00:11:31;;;;;;;;;35.50;30.50;;;;;5.48;83.92;103004.97;5056471;28;45483;-79
2022/01/14 00:16:29;;;;;;;;;24.00;22.25;;;;;5.11;83.74;102945.63;5073133;28;45655;-78
2022/01/14 00:18:57;;;;;;;;;37.75;29.75;;;;;5.05;84.07;102929.25;5072382;28;47216;-78
2022/01/14 00:21:23;;;;;;;;;33.75;30.50;;;;;5.16;83.81;102946.44;5055296;28;46007;-78
2022/01/14 00:23:54;;;;;;;;;39.50;33.50;;;;;5.35;83.82;102982.59;5058679;28;45594;-79
2022/01/14 00:31:56;;;;;;;;;39.00;33.50;;;;;4.97;83.55;102912.00;5076667;28;45865;-78
2022/01/14 00:34:28;;;;;;;;;36.25;28.50;;;;;5.53;84.00;103025.72;5059770;28;45581;-77
2022/01/14 00:36:53;;;;;;;;;37.50;30.00;;;;;5.23;83.67;102972.34;5076783;28;47422;-79
2022/01/14 00:39:19;;;;;;;;;33.75;26.50;;;;;5.27;83.57;102978.38;5077398;28;45732;-78
2022/01/14 00:41:45;;;;;;;;;35.50;29.00;;;;;5.22;83.48;102974.97;5078128;28;45719;-76
2022/01/14 00:50:54;;;;;;;;;34.00;28.25;;;;;5.38;83.57;102999.91;5083669;28;45920;-79
2022/01/14 00:53:19;;;;;;;;;33.50;28.50;;;;;5.38;83.93;102999.91;5081809;28;45758;-79
2022/01/14 00:55:58;;;;;;;;;31.00;27.50;;;;;5.38;84.03;103000.75;5077969;28;45722;-78
2022/01/14 01:01:11;;;;;;;;;32.00;25.00;;;;;5.30;83.56;102999.09;5074883;28;45688;-78
2022/01/14 01:03:36;;;;;;;;;26.50;26.00;;;;;5.30;83.88;102999.09;5074969;28;45634;-78
2022/01/14 01:06:03;;;;;;;;;30.00;28.00;;;;;5.16;83.69;102980.22;5076429;28;45682;-79
2022/01/14 01:08:30;;;;;;;;;37.25;32.25;;;;;5.04;83.85;102952.63;5076112;28;46329;-79
2022/01/14 01:10:55;;;;;;;;;36.75;30.50;;;;;5.36;83.76;103005.09;5075904;28;46086;-78
2022/01/14 01:13:32;;;;;;;;;28.00;24.25;;;;;5.37;83.91;103003.38;5075728;28;45655;-79
2022/01/14 01:15:58;;;;;;;;;32.00;27.75;;;;;5.28;83.86;102986.16;5076148;28;45870;-79
2022/01/14 01:18:27;;;;;;;;;32.00;27.50;;;;;5.37;83.58;103005.97;5075566;28;45495;-79
2022/01/14 01:21:00;;;;;;;;;44.00;33.25;;;;;5.40;83.50;103012.00;5075840;28;45663;-78
2022/01/14 01:23:31;;;;;;;;;41.50;30.75;;;;;5.34;83.55;102991.28;5076417;28;46009;-78
2022/01/14 01:26:11;;;;;;;;;36.75;27.00;;;;;5.44;83.71;103003.31;5059712;28;45835;-78
2022/01/14 01:29:04;;;;;;;;;35.75;31.75;;;;;5.04;83.53;102932.72;5063389;28;46477;-77
2022/01/14 01:31:39;;;;;;;;;32.50;29.50;;;;;5.44;84.02;103000.69;5078952;28;46073;-78
2022/01/14 01:34:12;;;;;;;;;30.00;25.75;;;;;5.45;83.54;103002.41;5059570;28;45599;-78
2022/01/14 01:36:40;;;;;;;;;23.00;21.75;;;;;5.36;83.94;102980.84;5057524;28;45920;-79
2022/01/14 01:39:09;;;;;;;;;31.00;27.25;;;;;5.12;83.82;102939.56;5075020;28;46861;-78
2022/01/14 01:41:40;;;;;;;;;33.50;27.25;;;;;5.47;83.66;102997.19;5075136;28;47209;-79
2022/01/14 01:44:07;;;;;;;;;31.25;29.25;;;;;5.47;83.59;102998.06;5075183;28;45806;-78
2022/01/14 01:46:40;;;;;;;;;35.75;30.75;;;;;5.42;83.65;102991.19;5056713;28;46034;-78
2022/01/14 01:49:11;;;;;;;;;34.75;29.75;;;;;5.43;83.32;102992.91;5074977;28;46288;-79
2022/01/14 01:51:37;;;;;;;;;31.50;29.50;;;;;5.48;83.92;103004.97;5057048;28;46717;-78
2022/01/14 01:54:03;;;;;;;;;26.25;26.25;;;;;5.47;83.70;102999.78;5075360;28;45828;-77
2022/01/14 01:56:30;;;;;;;;;31.50;30.25;;;;;5.40;83.81;102982.53;5075328;28;45592;-79
2022/01/14 01:58:56;;;;;;;;;32.25;28.00;;;;;5.49;83.41;102998.03;5075281;28;45625;-79
2022/01/14 02:01:23;;;;;;;;;32.50;28.75;;;;;5.49;83.55;102996.31;5074143;28;45689;-79
2022/01/14 02:03:48;;;;;;;;;30.50;24.25;;;;;5.44;83.53;102979.03;5075369;28;45605;-80
2022/01/14 02:06:19;;;;;;;;;32.75;28.25;;;;;5.45;83.74;102984.19;5075989;28;45699;-77
2022/01/14 02:08:44;;;;;;;;;30.75;24.50;;;;;5.45;83.32;102976.41;5075517;28;45585;-77
2022/01/14 02:11:10;;;;;;;;;27.00;24.00;;;;;5.50;83.64;102984.19;5075445;28;46507;-79
2022/01/14 02:13:38;;;;;;;;;33.75;32.25;;;;;5.47;83.60;102968.59;5074363;28;45459;-79
2022/01/14 02:23:48;;;;;;;;;32.25;27.00;;;;;5.56;83.50;102980.66;5077715;28;45683;-76
2022/01/14 02:26:17;;;;;;;;;38.50;24.25;;;;;5.56;83.27;102981.47;5078478;28;45633;-78
2022/01/14 02:28:50;;;;;;;;;35.00;29.75;;;;;5.58;83.85;102973.66;5075753;28;46301;-79
2022/01/14 02:31:20;;;;;;;;;40.00;32.00;;;;;5.57;83.53;102975.41;5056037;28;47408;-79
2022/01/14 02:33:46;;;;;;;;;28.50;24.75;;;;;5.58;83.83;102973.66;5073833;28;45922;-79
2022/01/14 02:36:20;;;;;;;;;29.75;28.00;;;;;5.53;83.39;102963.31;5057128;28;45652;-79
2022/01/14 02:38:45;;;;;;;;;34.00;30.75;;;;;5.58;83.67;102958.94;5057783;28;45487;-79
2022/01/14 02:41:11;;;;;;;;;34.50;31.25;;;;;5.53;83.78;102950.31;5056314;28;47899;-78
2022/01/14 02:43:37;;;;;;;;;32.50;27.75;;;;;5.56;83.22;102946.84;5073039;28;46008;-79
2022/01/14 02:46:05;;;;;;;;;35.50;30.50;;;;;5.56;83.63;102936.44;5073585;28;45622;-81
2022/01/14 02:48:30;;;;;;;;;32.25;27.75;;;;;5.57;83.39;102941.59;5074315;28;46557;-79
2022/01/14 02:56:15;;;;;;;;;33.25;27.50;;;;;5.54;83.29;102949.44;5074701;28;45635;-79
2022/01/14 02:58:47;;;;;;;;;38.00;30.25;;;;;5.48;83.76;102944.31;5074431;28;45654;-79
2022/01/14 03:01:16;;;;;;;;;35.50;29.25;;;;;5.55;83.52;102950.31;5053201;28;48321;-78
2022/01/14 03:03:45;;;;;;;;;29.00;24.25;;;;;5.45;83.45;102920.97;5036298;28;45707;-77
2022/01/14 03:06:14;;;;;;;;;37.50;29.25;;;;;5.47;83.54;102922.66;5054472;28;45663;-79
2022/01/14 03:08:41;;;;;;;;;28.75;27.25;;;;;5.37;83.60;102899.41;5053647;28;46519;-78
2022/01/14 03:11:11;;;;;;;;;29.00;28.25;;;;;5.55;83.59;102940.78;5053581;28;46910;-78
2022/01/14 03:13:37;;;;;;;;;39.25;32.00;;;;;5.14;83.45;102870.25;5053976;28;45513;-78
2022/01/14 03:16:04;;;;;;;;;40.50;30.75;;;;;5.52;83.34;102940.81;5051329;28;45531;-78
2022/01/14 03:18:36;;;;;;;;;32.75;29.50;;;;;5.14;83.65;102863.31;5053745;28;47362;-79
2022/01/14 03:21:13;;;;;;;;;33.50;30.25;;;;;5.51;83.73;102928.69;5019853;28;48040;-79
2022/01/14 03:23:50;;;;;;;;;33.00;29.25;;;;;5.49;83.63;102915.72;5052672;28;45895;-78
2022/01/14 03:26:17;;;;;;;;;38.75;33.50;;;;;5.51;83.71;102920.03;5053772;28;45837;-79
2022/01/14 03:28:43;;;;;;;;;23.50;21.25;;;;;5.35;83.62;102888.16;5035813;28;48526;-78
2022/01/14 03:31:09;;;;;;;;;36.50;29.25;;;;;5.47;83.63;102908.81;5052071;28;47728;-80
2022/01/14 03:33:40;;;;;;;;;32.00;29.50;;;;;5.45;83.66;102908.00;5035620;28;45528;-77
2022/01/14 03:36:09;;;;;;;;;34.25;29.00;;;;;5.52;83.63;102914.81;5053602;28;46005;-79
2022/01/14 03:38:36;;;;;;;;;36.25;34.00;;;;;5.52;83.30;102916.53;5054020;28;46789;-79
2022/01/14 03:41:02;;;;;;;;;41.75;30.00;;;;;5.52;83.30;102922.59;5054520;28;47092;-78
2022/01/14 03:43:28;;;;;;;;;29.00;26.50;;;;;5.35;83.66;102890.75;5054604;28;45927;-78
2022/01/14 03:45:53;;;;;;;;;32.75;29.00;;;;;5.52;83.60;102922.59;5036331;28;45606;-77
2022/01/14 03:51:45;;;;;;;;;38.00;28.75;;;;;5.53;83.16;102924.31;5054304;28;45492;-79
2022/01/14 03:54:10;;;;;;;;;39.50;35.50;;;;;5.46;nan;102899.28;5054137;28;45863;-78
2022/01/14 03:56:38;;;;;;;;;42.50;36.00;;;;;5.55;83.09;102916.53;5037138;28;45693;-79
2022/01/14 03:59:04;;;;;;;;;45.25;40.75;;;;;5.46;83.63;102888.88;5058210;28;45510;-79
2022/01/14 04:01:30;;;;;;;;;37.25;33.00;;;;;5.44;83.55;102885.47;5060459;28;47259;-81
2022/01/14 04:03:57;;;;;;;;;28.50;26.00;;;;;5.45;83.77;102893.22;5077006;28;45534;-79
2022/01/14 04:06:23;;;;;;;;;28.75;26.50;;;;;5.51;83.51;102902.69;5076996;28;45595;-79
2022/01/14 04:09:08;;;;;;;;;37.75;34.75;;;;;5.30;83.58;102871.78;5058350;28;47614;-79
2022/01/14 04:11:34;;;;;;;;;30.00;29.00;;;;;5.49;83.52;102899.25;5057556;28;47476;-79
2022/01/14 04:16:53;;;;;;;;;31.00;27.75;;;;;5.34;83.35;102882.13;5051506;28;45619;-81
2022/01/14 04:19:19;;;;;;;;;32.00;29.75;;;;;5.42;83.60;102903.66;5087427;28;46186;-80
2022/01/14 04:21:44;;;;;;;;;32.50;29.25;;;;;5.36;83.28;102892.50;5090575;28;45722;-77
2022/01/14 04:24:16;;;;;;;;;32.25;28.00;;;;;5.46;83.20;102918.34;5087773;28;45678;-80
2022/01/14 04:26:56;;;;;;;;;37.50;30.00;;;;;5.04;83.75;102843.53;5093504;28;45410;-78
2022/01/14 04:29:21;;;;;;;;;29.50;26.00;;;;;5.42;83.43;102906.28;5075993;28;46411;-81
2022/01/14 04:31:47;;;;;;;;;41.00;33.00;;;;;5.25;83.46;102870.97;5092099;28;46004;-81
2022/01/14 04:34:15;;;;;;;;;34.75;29.75;;;;;5.24;83.45;102871.84;5091002;28;45666;-80
2022/01/14 04:36:42;;;;;;;;;35.00;30.50;;;;;5.25;83.24;102873.56;5095401;28;45816;-79
2022/01/14 04:39:09;;;;;;;;;39.25;33.00;;;;;5.25;83.52;102879.63;5090947;28;46325;-81
2022/01/14 04:41:37;;;;;;;;;38.75;33.50;;;;;5.32;83.32;102890.81;5076706;28;45751;-79
2022/01/14 04:44:05;;;;;;;;;35.75;32.25;;;;;5.30;83.57;102888.22;5078509;28;45807;-81
2022/01/14 04:52:39;;;;;;;;;36.50;31.00;;;;;4.98;83.17;102839.25;5076388;28;45629;-79
2022/01/14 04:55:06;;;;;;;;;35.75;30.25;;;;;5.08;83.53;102853.84;5077007;28;45625;-79
2022/01/14 04:57:32;;;;;;;;;36.75;32.75;;;;;5.16;83.10;102868.50;5077168;28;45868;-78
2022/01/14 04:59:59;;;;;;;;;36.50;30.00;;;;;5.14;83.03;102867.66;5057929;28;47561;-78
2022/01/14 05:02:25;;;;;;;;;38.75;29.00;;;;;5.13;83.56;102871.97;5064283;28;46272;-79
2022/01/14 05:04:54;;;;;;;;;33.25;29.25;;;;;5.12;83.14;102879.81;5055813;28;45611;-80
2022/01/14 05:07:25;;;;;;;;;41.00;33.00;;;;;5.02;83.37;102866.91;5056344;28;45611;-80
2022/01/14 05:10:09;;;;;;;;;36.75;28.75;;;;;5.10;82.71;102873.75;5054608;28;46750;-78
2022/01/14 05:12:40;;;;;;;;;33.75;28.25;;;;;5.06;83.00;102867.75;5055930;28;46415;-79
2022/01/14 05:15:07;;;;;;;;;27.50;25.00;;;;;5.08;82.94;102877.22;5055526;28;45857;-79
2022/01/14 05:17:33;;;;;;;;;35.50;27.50;;;;;4.99;83.01;102861.75;5056030;28;45615;-79
2022/01/14 05:19:59;;;;;;;;;35.25;30.25;;;;;4.89;83.28;102848.91;5037121;28;48410;-79
2022/01/14 05:22:27;;;;;;;;;33.75;28.00;;;;;5.03;83.00;102872.97;5055846;28;45694;-79
2022/01/14 05:24:52;;;;;;;;;39.75;31.50;;;;;5.01;82.96;102867.81;5055803;28;45669;-78
2022/01/14 05:27:18;;;;;;;;;38.75;30.50;;;;;4.93;83.20;102860.97;5055792;28;45691;-78
2022/01/14 05:29:44;;;;;;;;;39.50;32.50;;;;;5.00;83.27;102871.28;5055303;28;45873;-80
2022/01/14 05:32:13;;;;;;;;;35.75;32.25;;;;;4.93;83.06;102856.63;5055588;28;45535;-77
2022/01/14 05:34:43;;;;;;;;;29.75;26.75;;;;;5.02;83.31;102872.09;5055015;28;45680;-78
2022/01/14 05:37:11;;;;;;;;;29.25;26.25;;;;;5.03;83.21;102883.34;5055935;28;45540;-78
2022/01/14 05:39:38;;;;;;;;;29.50;28.50;;;;;5.02;83.12;102876.47;5036933;28;47271;-79
2022/01/14 05:42:04;;;;;;;;;39.25;33.25;;;;;4.89;83.09;102865.34;5055443;28;46136;-77
2022/01/14 05:44:30;;;;;;;;;33.75;30.25;;;;;5.00;82.88;102888.59;5056743;28;45688;-78
2022/01/14 05:46:57;;;;;;;;;36.50;32.25;;;;;4.92;83.07;102885.22;5060547;28;45666;-77
2022/01/14 05:52:45;;;;;;;;;41.75;35.50;;;;;4.94;82.72;102892.13;5056058;28;46089;-78
2022/01/14 05:55:13;;;;;;;;;28.50;26.25;;;;;4.93;83.34;102893.00;5055396;28;45643;-79
2022/01/14 05:57:39;;;;;;;;;34.00;30.75;;;;;4.94;82.90;102883.47;5054152;28;45498;-77
2022/01/14 06:00:13;;;;;;;;;37.00;30.75;;;;;4.97;83.30;102893.81;5055001;28;46239;-77
2022/01/14 06:02:39;;;;;;;;;35.00;29.00;;;;;4.94;83.12;102893.88;5069004;28;46114;-80
2022/01/14 06:05:05;;;;;;;;;33.75;30.25;;;;;5.00;83.30;102894.66;5075640;28;45787;-78
2022/01/14 06:07:30;;;;;;;;;29.00;25.25;;;;;4.93;83.41;102872.22;5075427;28;45537;-79
2022/01/14 06:09:56;;;;;;;;;29.50;28.50;;;;;5.03;83.23;102884.22;5075831;28;45848;-79
2022/01/14 06:12:21;;;;;;;;;34.75;32.25;;;;;5.04;83.10;102887.69;5077623;28;47359;-79
2022/01/14 06:14:46;;;;;;;;;33.75;26.50;;;;;5.07;83.34;102877.28;5081536;28;45939;-79
2022/01/14 06:17:12;;;;;;;;;40.25;33.75;;;;;5.00;82.85;102875.63;5081172;28;45538;-79
2022/01/14 06:22:59;;;;;;;;;26.75;24.25;;;;;5.09;83.10;102880.69;5074489;28;45696;-80
2022/01/14 06:25:25;;;;;;;;;35.75;27.00;;;;;5.06;83.52;102881.59;5075194;28;45620;-79
2022/01/14 06:27:51;;;;;;;;;31.25;26.50;;;;;5.08;83.42;102884.16;5073377;28;45661;-79
2022/01/14 06:30:17;;;;;;;;;37.25;32.75;;;;;5.01;83.10;102865.22;5074464;28;46681;-80
2022/01/14 06:32:42;;;;;;;;;36.25;28.50;;;;;5.03;82.94;102871.22;5074593;28;46205;-78
2022/01/14 06:38:29;;;;;;;;;34.25;30.50;;;;;5.04;82.97;102878.16;5075058;28;45692;-80
2022/01/14 06:40:54;;;;;;;;;34.25;29.75;;;;;5.11;83.28;102883.28;5074603;28;45858;-79
2022/01/14 06:43:20;;;;;;;;;33.25;28.75;;;;;5.14;83.21;102875.44;5074672;28;48498;-79
2022/01/14 06:45:45;;;;;;;;;30.50;28.50;;;;;5.11;83.06;102863.38;5074384;28;45762;-79
2022/01/14 06:48:10;;;;;;;;;33.75;30.25;;;;;5.11;82.94;102870.28;5074270;28;45619;-79
2022/01/14 06:50:36;;;;;;;;;32.50;27.75;;;;;5.12;83.26;102872.88;5073885;28;46550;-79
2022/01/14 06:53:02;;;;;;;;;34.00;29.00;;;;;5.18;83.24;102883.19;5074414;28;46001;-79
2022/01/14 06:55:28;;;;;;;;;34.50;25.75;;;;;5.19;83.03;102873.63;5074322;28;45460;-79
2022/01/14 06:57:54;;;;;;;;;39.25;31.00;;;;;5.16;83.04;102871.97;5055826;28;45737;-79
2022/01/14 07:00:20;;;;;;;;;32.50;28.50;;;;;5.18;83.01;102867.63;5073653;28;45814;-78
2022/01/14 07:02:45;;;;;;;;;35.75;30.50;;;;;5.23;83.08;102877.94;5074310;28;45813;-80
2022/01/14 07:08:32;;;;;;;;;38.75;30.50;;;;;5.17;83.09;102852.91;5073787;28;45635;-80
2022/01/14 07:10:58;;;;;;;;;33.00;26.25;;;;;5.17;83.39;102859.81;5074342;28;45869;-78
2022/01/14 07:13:23;;;;;;;;;37.50;28.75;;;;;5.23;83.34;102871.00;5074100;28;46154;-78
2022/01/14 07:15:48;;;;;;;;;33.25;26.50;;;;;5.23;83.57;102868.41;5074683;28;45660;-79
2022/01/14 07:18:16;;;;;;;;;29.25;25.75;;;;;5.16;83.48;102847.72;5074237;28;45844;-79
2022/01/14 07:24:04;;;;;;;;;26.25;25.00;;;;;5.17;83.32;102846.84;5074331;28;46031;-80
2022/01/14 07:26:30;;;;;;;;;34.25;26.00;;;;;5.20;83.62;102855.44;5074073;28;45590;-80
2022/01/14 07:28:55;;;;;;;;;32.00;29.50;;;;;5.26;83.27;102862.31;5073900;28;45852;-79
2022/01/14 07:31:20;;;;;;;;;33.75;28.25;;;;;5.27;82.90;102870.09;5073875;28;46476;-79
2022/01/14 07:33:47;;;;;;;;;39.00;31.25;;;;;5.28;82.87;102863.16;5077174;28;47214;-79
2022/01/14 07:36:13;;;;;;;;;36.00;28.50;;;;;5.28;83.49;102865.75;5077987;28;45865;-79
2022/01/14 07:38:38;;;;;;;;;30.25;27.25;;;;;5.28;82.99;102869.22;5077727;28;45572;-79
2022/01/14 07:41:04;;;;;;;;;32.75;27.00;;;;;5.23;83.04;102854.56;5077494;28;47146;-79
2022/01/14 07:43:29;;;;;;;;;32.50;28.75;;;;;5.28;83.26;102857.97;5077472;28;46214;-79
2022/01/14 07:45:55;;;;;;;;;27.50;25.50;;;;;5.31;83.38;102858.75;5059101;28;45523;-80
2022/01/14 07:48:21;;;;;;;;;37.75;29.00;;;;;5.15;83.23;102839.06;5077894;28;45686;-79
2022/01/14 07:54:09;;;;;;;;;32.00;26.00;;;;;5.33;83.22;102874.34;5079471;28;45786;-78
2022/01/14 07:56:36;;;;;;;;;30.00;26.75;;;;;5.32;83.12;102877.81;5082956;28;45613;-76
2022/01/14 07:59:03;;;;;;;;;39.25;29.50;;;;;5.35;83.45;102881.22;5081502;28;45953;-77
2022/01/14 08:01:29;;;;;;;;;30.75;25.50;;;;;5.36;83.03;102888.16;5079033;28;46435;-76
2022/01/14 08:03:54;;;;;;;;;38.00;35.50;;;;;5.35;82.93;102878.63;5078278;28;45695;-80
2022/01/14 08:06:22;;;;;;;;;30.00;29.75;;;;;5.32;83.17;102870.88;5059525;28;45888;-77
2022/01/14 08:08:48;;;;;;;;;32.75;29.50;;;;;5.38;83.18;102875.16;5077452;28;45590;-79
2022/01/14 08:11:15;;;;;;;;;32.00;27.75;;;;;5.39;83.26;102877.72;5077355;28;45502;-78
2022/01/14 08:13:41;;;;;;;;;43.00;30.00;;;;;5.40;82.84;102879.44;5077014;28;46362;-78
2022/01/14 08:16:06;;;;;;;;;32.75;25.50;;;;;5.41;83.43;102880.28;5077523;28;45439;-81
2022/01/14 08:18:32;;;;;;;;;32.00;28.25;;;;;5.43;83.17;102883.75;5077137;28;45507;-79
2022/01/14 08:24:18;;;;;;;;;38.25;26.00;;;;;5.44;83.18;102875.06;5078322;28;45653;-78
2022/01/14 08:26:44;;;;;;;;;34.50;32.75;;;;;5.47;83.06;102888.00;5078773;28;45624;-78
2022/01/14 08:29:09;;;;;;;;;30.75;29.25;;;;;5.44;83.18;102883.72;5078251;28;45501;-80
2022/01/14 08:31:35;;;;;;;;;34.25;30.00;;;;;5.51;83.37;102891.44;5059802;28;45593;-79
2022/01/14 08:34:00;;;;;;;;;43.75;30.25;;;;;5.52;82.92;102893.16;5076935;28;46956;-80
2022/01/14 08:39:48;;;;;;;;;39.00;30.50;;;;;5.54;82.95;102888.78;5077492;28;45573;-77
2022/01/14 08:42:14;;;;;;;;;42.50;32.25;;;;;5.46;82.92;102875.88;5077504;28;45766;-79
2022/01/14 08:44:41;;;;;;;;;39.25;35.00;;;;;5.57;83.07;102888.75;5077696;28;45986;-77
2022/01/14 08:47:09;;;;;;;;;36.75;31.50;;;;;5.58;82.82;102891.31;5079391;28;45919;-80
2022/01/14 08:49:39;;;;;;;;;47.50;36.00;;;;;5.49;82.88;102874.13;5062161;28;45594;-79
2022/01/14 08:52:05;;;;;;;;;39.00;34.25;;;;;5.60;82.51;102883.53;5081027;28;45608;-80
2022/01/14 08:54:31;;;;;;;;;38.75;33.50;;;;;5.68;82.93;102905.06;5080043;28;45487;-80
2022/01/14 08:56:58;;;;;;;;;46.50;35.25;;;;;5.71;82.61;102894.63;5078268;28;45817;-79
2022/01/14 08:59:24;;;;;;;;;33.50;28.00;;;;;5.70;82.83;102888.56;5059389;28;45841;-79
2022/01/14 09:01:49;;;;;;;;;36.25;31.25;;;;;5.76;82.42;102893.69;5075453;28;46403;-80
2022/01/14 09:04:15;;;;;;;;;38.25;31.75;;;;;5.79;82.76;102885.81;5058821;28;46946;-79
2022/01/14 09:06:41;;;;;;;;;40.25;30.75;;;;;5.82;82.84;102888.41;5058323;28;45695;-78
2022/01/14 09:09:07;;;;;;;;;35.50;29.00;;;;;5.83;82.70;102878.84;5076202;28;45870;-80
2022/01/14 09:11:33;;;;;;;;;38.25;30.75;;;;;5.88;82.54;102884.88;5076779;28;45777;-79
2022/01/14 09:13:59;;;;;;;;;31.75;28.75;;;;;5.82;82.49;102875.38;5076499;28;46094;-81
2022/01/14 09:16:24;;;;;;;;;46.75;37.25;;;;;5.87;82.52;102881.41;5076746;28;45478;-80
2022/01/14 09:18:50;;;;;;;;;36.50;31.25;;;;;5.96;82.37;102888.22;5076336;28;45716;-80
2022/01/14 09:21:17;;;;;;;;;34.00;29.75;;;;;5.85;82.68;102870.13;5076215;28;45558;-78
2022/01/14 09:23:50;;;;;;;;;40.75;34.00;;;;;5.82;82.62;102856.31;5076048;28;46162;-78
2022/01/14 09:26:16;;;;;;;;;38.50;32.00;;;;;6.03;82.33;102879.44;5057750;28;45837;-79
2022/01/14 09:28:42;;;;;;;;;37.00;29.00;;;;;6.06;82.38;102881.13;5075878;28;45700;-79
2022/01/14 09:31:08;;;;;;;;;35.25;30.75;;;;;5.99;82.16;102861.31;5057685;28;46589;-82
2022/01/14 09:33:34;;;;;;;;;44.50;38.50;;;;;6.11;82.38;102874.94;5075944;28;46242;-78
2022/01/14 09:36:00;;;;;;;;;39.75;30.75;;;;;5.94;82.11;102837.94;5075803;28;45716;-80
2022/01/14 09:38:28;;;;;;;;;45.50;37.75;;;;;6.10;82.42;102865.41;5075765;28;45583;-79
2022/01/14 09:40:56;;;;;;;;;37.75;33.00;;;;;6.22;81.96;102872.19;5075399;28;46748;-78
2022/01/14 09:43:21;;;;;;;;;49.00;40.75;;;;;6.26;82.05;102869.50;5075872;28;46277;-79
2022/01/14 09:45:50;;;;;;;;;47.00;37.75;;;;;6.32;81.68;102876.34;5076004;28;45686;-77
2022/01/14 09:48:16;;;;;;;;;39.50;35.00;;;;;6.26;81.93;102856.47;5075991;28;45595;-78
2022/01/14 09:50:42;;;;;;;;;41.25;36.50;;;;;6.44;82.03;102881.34;5075609;28;45627;-81
2022/01/14 09:53:11;;;;;;;;;46.25;39.00;;;;;6.34;81.91;102853.75;5075834;28;46181;-82
2022/01/14 09:55:36;;;;;;;;;37.25;32.25;;;;;6.40;81.98;102869.28;5056648;28;45886;-78
2022/01/14 09:58:02;;;;;;;;;48.50;35.25;;;;;6.43;81.82;102864.00;5075500;28;45657;-80
2022/01/14 10:00:27;;;;;;;;;45.00;36.25;;;;;6.55;81.84;102887.22;5075418;28;46317;-79
2022/01/14 10:02:52;;;;;;;;;44.00;40.00;;;;;6.57;81.80;102884.59;5075088;28;45651;-79
2022/01/14 10:05:36;;;;;;;;;49.75;37.25;;;;;6.58;81.75;102889.78;5074965;28;46054;-79
2022/01/14 10:08:17;;;;;;;;;38.75;33.25;;;;;6.61;81.61;102894.94;5075392;28;45593;-79
2022/01/14 10:10:46;;;;;;;;;47.75;37.00;;;;;6.56;81.33;102882.88;5075146;28;46401;-79
2022/01/14 10:13:20;;;;;;;;;40.25;36.00;;;;;6.67;81.31;102899.16;5057034;28;47192;-78
2022/01/14 10:15:59;;;;;;;;;42.00;37.00;;;;;6.69;81.40;102907.81;5075125;28;45608;-78
2022/01/14 10:18:25;;;;;;;;;44.50;37.75;;;;;6.72;81.21;102902.53;5075352;28;45720;-80
2022/01/14 10:20:51;;;;;;;;;50.50;39.25;;;;;6.72;81.40;102897.34;5074931;28;45659;-80
2022/01/14 10:23:37;;;;;;;;;45.00;37.00;;;;;6.67;81.20;102876.59;5074617;28;46739;-81
2022/01/14 10:26:04;;;;;;;;;57.75;41.75;;;;;6.75;81.04;102879.91;5074874;28;45925;-79
2022/01/14 10:28:30;;;;;;;;;54.75;45.75;;;;;6.77;81.34;102889.44;5074797;28;45471;-80
2022/01/14 10:30:55;;;;;;;;;48.75;42.00;;;;;6.89;81.20;102907.44;5074655;28;45666;-80
2022/01/14 10:33:25;;;;;;;;;44.75;36.50;;;;;6.59;80.93;102842.00;5074831;28;46161;-78
2022/01/14 10:35:51;;;;;;;;;46.50;41.50;;;;;6.88;80.95;102875.31;5074589;28;45768;-78
2022/01/14 10:38:19;;;;;;;;;51.25;42.00;;;;;6.98;81.06;102899.44;5074776;28;45660;-78
2022/01/14 10:40:53;;;;;;;;;52.75;40.00;;;;;6.98;81.12;102881.22;5074144;28;47357;-79
2022/01/14 10:43:22;;;;;;;;;46.50;39.75;;;;;7.03;81.12;102890.66;5074827;28;46408;-80
2022/01/14 10:45:49;;;;;;;;;49.00;40.25;;;;;7.05;80.98;102880.22;5058889;28;46048;-79
2022/01/14 10:48:18;;;;;;;;;47.75;39.50;;;;;7.07;80.81;102884.47;5077730;28;45688;-80
2022/01/14 10:50:45;;;;;;;;;50.00;43.25;;;;;7.10;80.82;102875.75;5077022;28;46906;-80
2022/01/14 10:53:39;;;;;;;;;48.50;41.75;;;;;7.14;80.94;102873.06;5074861;28;46432;-80
2022/01/14 10:56:13;;;;;;;;;59.25;42.50;;;;;7.14;80.62;102864.38;5070942;28;45502;-80
2022/01/14 10:58:43;;;;;;;;;47.50;41.25;;;;;7.20;80.79;102860.78;5074691;28;45668;-80
2022/01/14 11:01:16;;;;;;;;;53.50;41.50;;;;;7.21;80.75;102860.75;5055736;28;46302;-80
2022/01/14 11:03:56;;;;;;;;;57.75;45.75;;;;;7.23;80.53;102860.75;5074446;28;47419;-80
2022/01/14 11:06:38;;;;;;;;;50.25;43.00;;;;;7.23;80.59;102855.53;5072763;28;46002;-80
2022/01/14 11:09:05;;;;;;;;;61.75;44.00;;;;;7.28;80.57;102864.09;5074716;28;45748;-80
2022/01/14 11:11:33;;;;;;;;;55.75;44.00;;;;;7.30;80.37;102859.69;5074163;28;46668;-82
2022/01/14 11:13:59;;;;;;;;;50.75;42.00;;;;;7.29;80.51;102858.00;5074369;28;46121;-80
2022/01/14 11:16:25;;;;;;;;;59.50;47.00;;;;;7.23;80.37;102838.13;5074206;28;45593;-78
2022/01/14 11:18:51;;;;;;;;;53.00;45.25;;;;;7.25;80.14;102828.50;5074079;28;45543;-79
2022/01/14 11:24:04;;;;;;;;;52.25;42.75;;;;;7.37;80.20;102843.91;5073702;28;46061;-80
2022/01/14 11:26:36;;;;;;;;;56.00;46.00;;;;;7.42;80.23;102844.66;5056594;28;45613;-79
2022/01/14 11:29:07;;;;;;;;;60.50;45.75;;;;;7.43;80.13;102833.34;5073979;28;45471;-79
2022/01/14 11:31:35;;;;;;;;;59.50;48.50;;;;;7.47;80.04;102837.59;5074065;28;46637;-79
2022/01/14 11:34:04;;;;;;;;;63.50;50.00;;;;;7.54;79.94;102838.31;5073422;28;46204;-79
2022/01/14 11:36:59;;;;;;;;;58.25;49.25;;;;;7.44;79.91;102808.97;5055525;28;45623;-77
2022/01/14 11:39:31;;;;;;;;;52.50;43.50;;;;;7.58;79.68;102825.16;5053382;28;46016;-79
2022/01/14 11:42:08;;;;;;;;;55.25;43.50;;;;;7.63;79.84;102826.81;5072552;28;46351;-79
2022/01/14 11:44:56;;;;;;;;;59.50;45.25;;;;;7.65;79.74;102817.19;5073952;28;46037;-78
2022/01/14 11:47:21;;;;;;;;;53.25;44.00;;;;;7.69;79.67;102811.88;5073536;28;45768;-79
2022/01/14 11:49:46;;;;;;;;;61.33;45.67;;;;;7.71;79.68;102812.69;5073570;28;45584;-80
2022/01/14 11:52:12;;;;;;;;;59.00;45.50;;;;;7.69;79.68;102795.34;5073567;28;46525;-79
2022/01/14 11:54:43;;;;;;;;;64.50;48.00;;;;;7.76;79.65;102804.75;5073184;28;46044;-79
2022/01/14 11:57:09;;;;;;;;;58.50;46.25;;;;;7.80;79.64;102796.81;5073452;28;45430;-81
2022/01/14 11:59:35;;;;;;;;;61.50;49.25;;;;;7.82;79.54;102791.56;5073738;28;45920;-80
2022/01/14 12:02:00;;;;;;;;;54.67;45.00;;;;;7.85;79.45;102788.88;5073054;28;46222;-80
2022/01/14 12:05:07;;;;;;;;;59.75;48.25;;;;;7.88;79.41;102778.38;5073131;28;45715;-79
2022/01/14 12:08:01;;;;;;;;;57.75;46.50;;;;;7.92;79.22;102774.78;5071900;28;45593;-82
2022/01/14 12:10:51;;;;;;;;;52.00;43.00;;;;;7.91;79.29;102770.44;5073757;28;45830;-79
2022/01/14 12:13:30;;;;;;;;;63.00;47.00;;;;;7.96;79.15;102774.66;5073729;28;45610;-82
2022/01/14 12:16:01;;;;;;;;;53.75;45.25;;;;;7.94;79.08;102762.53;5073883;28;46016;-81
2022/01/14 12:18:57;;;;;;;;;59.75;48.25;;;;;8.00;79.20;102765.84;5075468;28;46003;-81
2022/01/14 12:24:49;;;;;;;;;60.75;49.75;;;;;8.05;79.07;102747.44;5076679;28;46308;-78
2022/01/14 12:27:19;;;;;;;;;58.00;46.25;;;;;8.06;78.86;102757.00;5076687;28;46015;-78
2022/01/14 12:29:51;;;;;;;;;62.50;47.00;;;;;8.07;78.97;102742.19;5076788;28;45505;-76
2022/01/14 12:32:31;;;;;;;;;63.00;48.50;;;;;8.16;78.76;102749.78;5076762;28;45542;-78
2022/01/14 12:34:56;;;;;;;;;56.25;44.00;;;;;8.18;78.63;102737.56;5076717;28;45642;-79
2022/01/14 12:40:43;;;;;;;;;56.75;43.25;;;;;8.19;78.71;102721.84;5076148;28;45547;-79
2022/01/14 12:43:12;;;;;;;;;52.25;41.50;;;;;8.29;78.51;102735.50;5076514;28;45810;-78